Time;durP1;ratioP1;P1;durP2;ratioP2;P2;SDS_P1;SDS_P2;PMS_P1;PMS_P2;Temp;Humidity;BMP_temperature;BMP_pressure;BME280_temperature;BME280_humidity;BME280_pressure;Samples;Min_cycle;Max_cycle;Signal;HPM_P1;HPM_P2
2021/05/22 00:00:33;;;;;;;19.60;10.13;;;;;;;;;;5008246;28;20545;-62
2021/05/22 00:02:59;;;;;;;17.55;9.32;;;;;;;;;;5008340;28;20100;-63
2021/05/22 00:05:25;;;;;;;16.55;9.95;;;;;;;;;;5008255;28;20121;-62
2021/05/22 00:07:51;;;;;;;16.23;9.52;;;;;;;;;;5009459;28;20445;-63
2021/05/22 00:10:17;;;;;;;16.83;9.73;;;;;;;;;;5010230;28;20029;-62
2021/05/22 00:12:45;;;;;;;15.18;8.68;;;;;;;;;;5007647;28;20065;-62
2021/05/22 00:15:11;;;;;;;;;;;;;;;;;;5008363;28;20142;-62
2021/05/22 00:17:37;;;;;;;14.82;8.32;;;;;;;;;;5008405;28;19917;-62
2021/05/22 00:20:04;;;;;;;13.05;7.38;;;;;;;;;;5008075;28;20172;-62
2021/05/22 00:22:30;;;;;;;12.55;7.03;;;;;;;;;;5010883;28;20537;-62
2021/05/22 00:24:56;;;;;;;9.57;5.97;;;;;;;;;;5012043;28;20116;-62
2021/05/22 00:27:22;;;;;;;13.25;7.03;;;;;;;;;;5011835;28;20022;-63
2021/05/22 00:29:48;;;;;;;9.75;4.78;;;;;;;;;;5011594;28;20168;-61
2021/05/22 00:32:14;;;;;;;10.93;6.57;;;;;;;;;;5011545;28;20030;-61
2021/05/22 00:34:40;;;;;;;9.75;5.88;;;;;;;;;;5013585;28;20022;-61
2021/05/22 00:37:06;;;;;;;10.55;5.90;;;;;;;;;;5012305;28;20056;-61
2021/05/22 00:39:32;;;;;;;7.07;4.75;;;;;;;;;;5011401;28;20081;-61
2021/05/22 00:42:03;;;;;;;10.68;5.55;;;;;;;;;;5011035;28;20032;-61
2021/05/22 00:44:31;;;;;;;6.15;3.60;;;;;;;;;;5043111;28;20433;-61
2021/05/22 00:46:57;;;;;;;7.53;4.72;;;;;;;;;;4996350;28;20061;-61
2021/05/22 00:49:23;;;;;;;2.85;1.63;;;;;;;;;;5014791;28;20144;-61
2021/05/22 00:51:49;;;;;;;5.07;2.63;;;;;;;;;;5011563;28;20120;-61
2021/05/22 00:54:16;;;;;;;6.05;2.92;;;;;;;;;;5011707;28;20029;-62
2021/05/22 00:56:42;;;;;;;4.55;1.60;;;;;;;;;;5010503;28;20099;-61
2021/05/22 00:59:13;;;;;;;2.63;1.75;;;;;;;;;;5011426;28;20492;-61
2021/05/22 01:01:39;;;;;;;4.88;1.20;;;;;;;;;;5013965;28;20030;-61
2021/05/22 01:04:05;;;;;;;1.50;1.10;;;;;;;;;;5012065;28;20026;-61
2021/05/22 01:06:34;;;;;;;6.45;2.00;;;;;;;;;;5010832;28;20045;-61
2021/05/22 01:09:02;;;;;;;3.53;2.20;;;;;;;;;;5011319;28;20540;-61
2021/05/22 01:11:29;;;;;;;5.18;2.60;;;;;;;;;;5010847;28;20029;-61
2021/05/22 01:14:00;;;;;;;6.60;3.10;;;;;;;;;;5011615;28;20029;-61
2021/05/22 01:16:26;;;;;;;7.43;2.92;;;;;;;;;;5009904;28;20022;-62
2021/05/22 01:18:53;;;;;;;7.55;3.08;;;;;;;;;;5011199;28;20056;-61
2021/05/22 01:21:20;;;;;;;10.70;3.45;;;;;;;;;;5011143;28;20030;-62
2021/05/22 01:23:54;;;;;;;8.32;2.97;;;;;;;;;;5010563;28;20129;-62
2021/05/22 01:26:21;;;;;;;8.32;3.15;;;;;;;;;;5012142;28;20076;-62
2021/05/22 01:28:47;;;;;;;9.75;3.00;;;;;;;;;;5012691;28;20101;-62
2021/05/22 01:31:13;;;;;;;9.88;3.20;;;;;;;;;;5012792;28;20029;-62
2021/05/22 01:33:39;;;;;;;6.95;3.03;;;;;;;;;;5010804;28;20034;-62
2021/05/22 01:36:06;;;;;;;6.05;2.60;;;;;;;;;;5009154;28;20034;-62
2021/05/22 01:38:32;;;;;;;5.80;2.70;;;;;;;;;;5010359;28;20042;-62
2021/05/22 01:40:58;;;;;;;7.50;2.88;;;;;;;;;;5042848;28;20605;-62
2021/05/22 01:43:25;;;;;;;3.63;2.25;;;;;;;;;;5013899;28;20097;-61
2021/05/22 01:45:52;;;;;;;4.90;2.10;;;;;;;;;;5010214;28;20038;-62
2021/05/22 01:48:19;;;;;;;5.18;1.90;;;;;;;;;;5010631;28;20026;-62
2021/05/22 01:51:06;;;;;;;4.97;2.17;;;;;;;;;;5010240;28;20058;-62
2021/05/22 01:53:32;;;;;;;7.28;2.40;;;;;;;;;;5006418;28;20076;-62
2021/05/22 01:55:58;;;;;;;4.63;2.47;;;;;;;;;;5010653;28;20026;-62
2021/05/22 01:58:24;;;;;;;4.50;2.55;;;;;;;;;;5013310;28;20057;-62
2021/05/22 02:00:51;;;;;;;5.43;2.85;;;;;;;;;;5010446;28;20045;-62
2021/05/22 02:03:46;;;;;;;6.72;3.05;;;;;;;;;;5009707;28;20517;-63
2021/05/22 02:06:23;;;;;;;9.55;3.45;;;;;;;;;;5009436;28;20060;-63
2021/05/22 02:08:52;;;;;;;9.93;3.60;;;;;;;;;;5009871;28;20034;-63
2021/05/22 02:11:18;;;;;;;9.75;3.58;;;;;;;;;;5009953;28;20073;-63
2021/05/22 02:13:44;;;;;;;6.40;3.58;;;;;;;;;;5012083;28;20534;-63
2021/05/22 02:16:11;;;;;;;8.93;3.35;;;;;;;;;;5010992;28;20071;-63
2021/05/22 02:18:37;;;;;;;5.55;2.70;;;;;;;;;;5009878;28;20026;-63
2021/05/22 02:21:04;;;;;;;7.65;3.10;;;;;;;;;;5020997;28;20397;-62
2021/05/22 02:23:33;;;;;;;9.73;3.17;;;;;;;;;;5009375;28;20069;-63
2021/05/22 02:25:59;;;;;;;9.60;3.80;;;;;;;;;;4994529;28;20482;-63
2021/05/22 02:28:28;;;;;;;6.47;4.00;;;;;;;;;;5009200;28;20025;-63
2021/05/22 02:30:54;;;;;;;11.02;3.40;;;;;;;;;;5010992;28;20528;-63
2021/05/22 02:33:21;;;;;;;5.22;2.97;;;;;;;;;;5009872;28;20030;-63
2021/05/22 02:35:47;;;;;;;8.70;3.20;;;;;;;;;;5009702;28;20037;-63
2021/05/22 02:38:15;;;;;;;6.13;2.47;;;;;;;;;;5008517;28;20054;-63
2021/05/22 02:40:41;;;;;;;6.37;2.53;;;;;;;;;;5011795;28;20691;-63
2021/05/22 02:43:09;;;;;;;9.65;3.40;;;;;;;;;;5010652;28;20026;-63
2021/05/22 02:45:37;;;;;;;9.70;3.22;;;;;;;;;;5008930;28;20042;-63
2021/05/22 02:48:05;;;;;;;6.97;3.38;;;;;;;;;;5008498;28;20473;-63
2021/05/22 02:50:32;;;;;;;7.43;4.38;;;;;;;;;;5009440;28;20026;-63
2021/05/22 02:52:59;;;;;;;7.72;3.50;;;;;;;;;;4993409;28;20030;-63
2021/05/22 02:55:26;;;;;;;6.43;3.45;;;;;;;;;;5012602;28;20028;-63
2021/05/22 02:57:53;;;;;;;7.95;1.75;;;;;;;;;;5009362;28;20121;-63
2021/05/22 03:00:20;;;;;;;6.00;1.10;;;;;;;;;;5008736;28;20034;-63
2021/05/22 03:02:47;;;;;;;8.18;2.53;;;;;;;;;;5009334;28;20026;-63
2021/05/22 03:05:13;;;;;;;3.80;1.75;;;;;;;;;;5008719;28;20478;-63
2021/05/22 03:07:39;;;;;;;3.75;1.70;;;;;;;;;;5011352;28;20032;-63
2021/05/22 03:10:06;;;;;;;5.32;1.35;;;;;;;;;;5009776;28;20104;-63
2021/05/22 03:12:33;;;;;;;5.95;1.90;;;;;;;;;;5008776;28;20422;-63
2021/05/22 03:14:59;;;;;;;9.10;2.80;;;;;;;;;;5008281;28;20069;-63
2021/05/22 03:17:25;;;;;;;7.35;3.00;;;;;;;;;;5008959;28;20093;-63
2021/05/22 03:19:51;;;;;;;4.82;2.35;;;;;;;;;;5010203;28;20034;-63
2021/05/22 03:22:18;;;;;;;5.50;2.80;;;;;;;;;;5011186;28;20377;-63
2021/05/22 03:24:44;;;;;;;6.00;3.25;;;;;;;;;;5008404;28;20172;-63
2021/05/22 03:27:10;;;;;;;4.60;2.47;;;;;;;;;;5008160;28;20117;-63
2021/05/22 03:29:36;;;;;;;4.30;1.63;;;;;;;;;;5008751;28;20022;-63
2021/05/22 03:32:02;;;;;;;3.97;1.45;;;;;;;;;;5008967;28;20026;-63
2021/05/22 03:34:30;;;;;;;3.88;1.70;;;;;;;;;;5011565;28;20018;-63
2021/05/22 03:36:56;;;;;;;8.15;1.80;;;;;;;;;;5010528;28;20057;-63
2021/05/22 03:39:22;;;;;;;5.25;2.30;;;;;;;;;;5008073;28;20520;-63
2021/05/22 03:41:47;;;;;;;5.40;2.20;;;;;;;;;;5008500;28;20022;-63
2021/05/22 03:44:13;;;;;;;6.68;2.40;;;;;;;;;;5007987;28;20034;-63
2021/05/22 03:46:39;;;;;;;3.20;2.08;;;;;;;;;;5010518;28;20034;-63
2021/05/22 03:49:05;;;;;;;3.00;2.00;;;;;;;;;;5009224;28;20054;-63
2021/05/22 03:51:31;;;;;;;6.07;2.70;;;;;;;;;;5008440;28;20035;-63
2021/05/22 03:53:57;;;;;;;5.43;2.95;;;;;;;;;;5008273;28;20096;-63
2021/05/22 03:56:23;;;;;;;4.53;3.30;;;;;;;;;;5007575;28;20056;-63
2021/05/22 03:58:50;;;;;;;5.18;2.90;;;;;;;;;;5009512;28;20797;-63
2021/05/22 04:01:16;;;;;;;6.38;3.30;;;;;;;;;;5010781;28;20022;-63
2021/05/22 04:03:42;;;;;;;5.82;3.10;;;;;;;;;;5008000;28;20113;-64
2021/05/22 04:06:08;;;;;;;7.88;2.90;;;;;;;;;;5007699;28;20116;-64
2021/05/22 04:08:34;;;;;;;7.47;2.67;;;;;;;;;;5007828;28;20504;-64
2021/05/22 04:11:00;;;;;;;5.80;2.97;;;;;;;;;;5008300;28;20084;-73
2021/05/22 04:13:26;;;;;;;5.43;2.50;;;;;;;;;;5008209;28;20026;-68
2021/05/22 04:15:52;;;;;;;47.78;14.80;;;;;;;;;;5000937;28;20026;-67
2021/05/22 04:18:18;;;;;;;6.15;2.20;;;;;;;;;;5003468;28;20026;-67
2021/05/22 04:20:44;;;;;;;2.70;1.67;;;;;;;;;;5005061;28;20034;-68
2021/05/22 04:23:10;;;;;;;4.68;2.30;;;;;;;;;;5007906;28;20394;-68
2021/05/22 04:25:36;;;;;;;5.78;2.33;;;;;;;;;;4999452;28;20038;-68
2021/05/22 04:28:02;;;;;;;5.00;1.55;;;;;;;;;;5004133;28;20030;-68
2021/05/22 04:30:28;;;;;;;2.88;1.45;;;;;;;;;;5002484;28;20105;-69
2021/05/22 04:32:54;;;;;;;3.70;1.95;;;;;;;;;;5003200;28;20153;-72
2021/05/22 04:35:20;;;;;;;4.30;1.90;;;;;;;;;;5008082;28;20481;-71
2021/05/22 04:37:46;;;;;;;2.85;1.73;;;;;;;;;;5005255;28;20042;-70
2021/05/22 04:40:13;;;;;;;1.10;0.90;;;;;;;;;;4999669;28;20064;-68
2021/05/22 04:42:39;;;;;;;2.22;0.90;;;;;;;;;;5035565;28;20026;-70
2021/05/22 04:45:06;;;;;;;5.72;1.15;;;;;;;;;;5003189;28;20046;-71
2021/05/22 04:47:32;;;;;;;1.35;0.88;;;;;;;;;;5000639;28;20105;-72
2021/05/22 04:49:58;;;;;;;1.67;0.70;;;;;;;;;;5006008;28;20501;-69
2021/05/22 04:52:24;;;;;;;3.03;0.90;;;;;;;;;;5005692;28;20018;-67
2021/05/22 04:54:51;;;;;;;2.72;1.20;;;;;;;;;;5003202;28;20543;-72
2021/05/22 04:57:17;;;;;;;3.60;1.17;;;;;;;;;;5002280;28;20492;-70
2021/05/22 04:59:43;;;;;;;2.03;1.05;;;;;;;;;;5001521;28;20027;-68
2021/05/22 05:02:09;;;;;;;1.58;1.00;;;;;;;;;;5007399;28;20026;-67
2021/05/22 05:04:35;;;;;;;1.40;1.00;;;;;;;;;;5010141;28;20073;-67
2021/05/22 05:07:04;;;;;;;5.70;1.20;;;;;;;;;;5004690;28;20030;-67
2021/05/22 05:09:33;;;;;;;3.08;1.65;;;;;;;;;;5002456;28;20377;-71
2021/05/22 05:12:01;;;;;;;3.53;1.20;;;;;;;;;;5007842;28;20101;-65
2021/05/22 05:14:27;;;;;;;2.63;1.10;;;;;;;;;;5003486;28;20641;-65
2021/05/22 05:16:53;;;;;;;1.73;0.88;;;;;;;;;;5010676;28;20413;-67
2021/05/22 05:19:19;;;;;;;1.10;0.80;;;;;;;;;;5010112;28;20048;-68
2021/05/22 05:21:45;;;;;;;1.25;0.70;;;;;;;;;;5003497;28;20038;-73
2021/05/22 05:24:11;;;;;;;2.45;0.77;;;;;;;;;;5008251;28;20026;-74
2021/05/22 05:26:37;;;;;;;5.00;1.00;;;;;;;;;;5007691;28;20026;-75
2021/05/22 05:29:03;;;;;;;1.15;0.88;;;;;;;;;;5004248;28;20037;-71
2021/05/22 05:31:29;;;;;;;5.97;1.20;;;;;;;;;;5010504;28;20051;-80
2021/05/22 05:33:55;;;;;;;1.30;0.90;;;;;;;;;;5008270;28;20026;-68
2021/05/22 05:36:21;;;;;;;3.50;0.90;;;;;;;;;;5005928;28;20105;-68
2021/05/22 05:38:47;;;;;;;1.60;1.20;;;;;;;;;;5002869;28;20034;-68
2021/05/22 05:41:13;;;;;;;4.72;1.92;;;;;;;;;;5003977;28;20417;-72
2021/05/22 05:43:39;;;;;;;4.55;1.75;;;;;;;;;;5008889;28;20025;-73
2021/05/22 05:46:05;;;;;;;3.03;1.92;;;;;;;;;;5001243;28;20087;-68
2021/05/22 05:48:31;;;;;;;3.97;1.63;;;;;;;;;;5007391;28;20026;-77
2021/05/22 05:50:57;;;;;;;2.17;1.63;;;;;;;;;;5003095;28;20041;-71
2021/05/22 05:53:23;;;;;;;3.47;1.52;;;;;;;;;;5008928;28;20029;-72
2021/05/22 05:55:49;;;;;;;3.10;1.20;;;;;;;;;;5009747;28;20042;-70
2021/05/22 05:58:15;;;;;;;0.98;0.75;;;;;;;;;;5000465;28;20053;-73
2021/05/22 06:00:41;;;;;;;2.75;1.00;;;;;;;;;;5006632;28;20030;-72
2021/05/22 06:03:07;;;;;;;1.88;0.70;;;;;;;;;;5002512;28;20042;-68
2021/05/22 06:05:33;;;;;;;3.55;0.90;;;;;;;;;;5008442;28;20044;-69
2021/05/22 06:07:59;;;;;;;0.75;0.65;;;;;;;;;;4995774;28;20022;-66
2021/05/22 06:10:25;;;;;;;2.20;0.73;;;;;;;;;;5009494;28;20489;-66
2021/05/22 06:12:51;;;;;;;1.55;0.50;;;;;;;;;;5006514;28;20101;-66
2021/05/22 06:17:44;;;;;;;3.45;0.90;;;;;;;;;;5006510;28;20029;-65
2021/05/22 06:20:11;;;;;;;1.15;1.00;;;;;;;;;;5008091;28;20033;-64
2021/05/22 06:22:37;;;;;;;4.80;1.42;;;;;;;;;;5010102;28;20388;-65
2021/05/22 06:25:03;;;;;;;0.82;0.70;;;;;;;;;;5009246;28;20080;-64
2021/05/22 06:27:29;;;;;;;2.45;0.80;;;;;;;;;;5008594;28;20034;-67
2021/05/22 06:29:55;;;;;;;1.67;0.82;;;;;;;;;;4996376;28;20108;-68
2021/05/22 06:32:21;;;;;;;1.55;0.85;;;;;;;;;;5008685;28;20096;-67
2021/05/22 06:34:47;;;;;;;1.52;0.60;;;;;;;;;;5009682;28;20037;-68
2021/05/22 06:37:13;;;;;;;1.92;0.70;;;;;;;;;;5009854;28;20083;-67
2021/05/22 06:39:39;;;;;;;3.20;0.88;;;;;;;;;;4998185;28;20452;-67
2021/05/22 06:42:05;;;;;;;2.25;0.63;;;;;;;;;;5007249;28;20022;-67
2021/05/22 06:44:46;;;;;;;0.68;0.52;;;;;;;;;;5007624;28;20061;-68
2021/05/22 06:47:12;;;;;;;1.70;0.50;;;;;;;;;;5009525;28;20105;-69
2021/05/22 06:49:37;;;;;;;2.60;0.50;;;;;;;;;;5011025;28;20117;-69
2021/05/22 06:52:04;;;;;;;3.85;0.60;;;;;;;;;;5009790;28;20077;-68
2021/05/22 06:54:33;;;;;;;1.20;0.60;;;;;;;;;;5008874;28;20049;-66
2021/05/22 06:56:59;;;;;;;2.70;0.40;;;;;;;;;;5009203;28;20033;-66
2021/05/22 06:59:26;;;;;;;1.35;0.47;;;;;;;;;;5040469;28;20026;-64
2021/05/22 07:01:52;;;;;;;0.80;0.50;;;;;;;;;;5009884;28;20045;-65
2021/05/22 07:04:18;;;;;;;5.00;0.57;;;;;;;;;;5011348;28;20030;-65
2021/05/22 07:06:44;;;;;;;4.80;0.68;;;;;;;;;;5009039;28;20038;-68
2021/05/22 07:09:10;;;;;;;0.85;0.60;;;;;;;;;;5008759;28;20026;-70
2021/05/22 07:11:36;;;;;;;1.67;0.55;;;;;;;;;;5039946;28;20453;-68
2021/05/22 07:14:02;;;;;;;1.15;0.50;;;;;;;;;;5008596;28;20050;-68
2021/05/22 07:16:28;;;;;;;1.33;0.63;;;;;;;;;;5011912;28;20030;-68
2021/05/22 07:18:54;;;;;;;1.17;0.50;;;;;;;;;;5008925;28;20037;-68
2021/05/22 07:21:20;;;;;;;1.05;0.70;;;;;;;;;;5008240;28;20068;-68
2021/05/22 07:23:46;;;;;;;3.45;0.60;;;;;;;;;;5006989;28;20018;-67
2021/05/22 07:26:12;;;;;;;0.75;0.50;;;;;;;;;;5006379;28;20039;-68
2021/05/22 07:28:38;;;;;;;0.75;0.40;;;;;;;;;;5010584;28;20022;-67
2021/05/22 07:31:04;;;;;;;1.63;0.50;;;;;;;;;;5009240;28;20102;-67
2021/05/22 07:33:39;;;;;;;1.80;0.55;;;;;;;;;;5007102;28;20018;-68
2021/05/22 07:36:05;;;;;;;1.52;0.50;;;;;;;;;;5008763;28;20034;-67
2021/05/22 07:38:31;;;;;;;3.53;0.68;;;;;;;;;;5008558;28;20038;-67
2021/05/22 07:40:57;;;;;;;2.28;0.52;;;;;;;;;;5007081;28;20025;-67
2021/05/22 07:43:23;;;;;;;1.50;0.50;;;;;;;;;;5009729;28;20021;-67
2021/05/22 07:45:51;;;;;;;1.20;0.38;;;;;;;;;;5006393;28;20080;-67
2021/05/22 07:48:17;;;;;;;;;;;;;;;;;;5007539;28;20096;-67
2021/05/22 07:50:43;;;;;;;2.53;0.70;;;;;;;;;;5007315;28;19910;-67
2021/05/22 07:53:09;;;;;;;1.52;0.52;;;;;;;;;;5007322;28;20471;-67
2021/05/22 07:55:35;;;;;;;0.93;0.40;;;;;;;;;;5010027;28;20026;-67
2021/05/22 07:58:01;;;;;;;1.05;0.40;;;;;;;;;;5009270;28;20462;-67
2021/05/22 08:00:27;;;;;;;1.65;0.50;;;;;;;;;;5008225;28;20030;-67
2021/05/22 08:02:53;;;;;;;0.95;0.50;;;;;;;;;;5008598;28;20060;-67
2021/05/22 08:05:19;;;;;;;1.35;0.47;;;;;;;;;;5007028;28;20069;-67
2021/05/22 08:07:45;;;;;;;4.57;0.50;;;;;;;;;;5010509;28;20484;-67
2021/05/22 08:10:14;;;;;;;1.80;0.50;;;;;;;;;;5009340;28;20109;-67
2021/05/22 08:12:40;;;;;;;2.70;0.50;;;;;;;;;;5008042;28;20030;-67
2021/05/22 08:15:06;;;;;;;2.05;0.60;;;;;;;;;;5007714;28;20028;-67
2021/05/22 08:17:32;;;;;;;1.83;0.75;;;;;;;;;;5008256;28;20148;-67
2021/05/22 08:19:58;;;;;;;2.80;0.50;;;;;;;;;;5008685;28;20120;-67
2021/05/22 08:22:25;;;;;;;1.33;0.52;;;;;;;;;;5011604;28;20104;-67
2021/05/22 08:24:50;;;;;;;2.50;0.40;;;;;;;;;;5007326;28;20044;-67
2021/05/22 08:27:19;;;;;;;1.52;0.40;;;;;;;;;;5008113;28;20390;-67
2021/05/22 08:29:45;;;;;;;3.25;0.75;;;;;;;;;;5007625;28;20018;-66
2021/05/22 08:32:11;;;;;;;1.73;0.43;;;;;;;;;;5008086;28;20069;-66
2021/05/22 08:34:39;;;;;;;2.65;0.60;;;;;;;;;;5010177;28;20554;-67
2021/05/22 08:37:05;;;;;;;0.73;0.40;;;;;;;;;;5009060;28;20026;-67
2021/05/22 08:39:31;;;;;;;1.38;0.40;;;;;;;;;;5007306;28;20049;-67
2021/05/22 08:41:57;;;;;;;2.22;0.50;;;;;;;;;;5008021;28;20029;-67
2021/05/22 08:44:23;;;;;;;1.48;0.43;;;;;;;;;;5009197;28;20034;-67
2021/05/22 08:46:49;;;;;;;3.03;0.55;;;;;;;;;;5013070;28;20088;-66
2021/05/22 08:49:16;;;;;;;3.17;0.43;;;;;;;;;;5013345;28;20021;-66
2021/05/22 08:51:43;;;;;;;0.85;0.60;;;;;;;;;;5013063;28;20049;-67
2021/05/22 08:54:09;;;;;;;2.45;0.65;;;;;;;;;;5011228;28;20045;-67
2021/05/22 08:56:35;;;;;;;1.42;0.50;;;;;;;;;;5011406;28;20051;-67
2021/05/22 08:59:01;;;;;;;3.13;0.60;;;;;;;;;;5011378;28;20179;-67
2021/05/22 09:01:27;;;;;;;2.58;0.60;;;;;;;;;;5014460;28;20045;-66
2021/05/22 09:03:55;;;;;;;2.70;0.52;;;;;;;;;;5043298;28;20121;-67
2021/05/22 09:06:21;;;;;;;1.05;0.60;;;;;;;;;;5011348;28;20049;-67
2021/05/22 09:09:04;;;;;;;4.00;0.60;;;;;;;;;;5011209;28;20026;-67
2021/05/22 09:11:45;;;;;;;3.85;0.57;;;;;;;;;;5011162;28;20029;-67
2021/05/22 09:14:11;;;;;;;1.92;0.50;;;;;;;;;;4996969;28;20030;-67
2021/05/22 09:16:37;;;;;;;1.58;0.40;;;;;;;;;;5013505;28;20119;-67
2021/05/22 09:19:03;;;;;;;2.42;0.50;;;;;;;;;;5012193;28;20053;-67
2021/05/22 09:21:33;;;;;;;1.70;0.50;;;;;;;;;;5011583;28;20037;-67
2021/05/22 09:23:59;;;;;;;2.72;0.70;;;;;;;;;;5010163;28;20036;-67
2021/05/22 09:26:31;;;;;;;0.85;0.50;;;;;;;;;;5043026;28;20484;-66
2021/05/22 09:28:59;;;;;;;2.25;0.40;;;;;;;;;;5011528;28;20021;-66
2021/05/22 09:31:27;;;;;;;1.17;0.55;;;;;;;;;;5013848;28;20054;-66
2021/05/22 09:34:00;;;;;;;1.13;0.40;;;;;;;;;;5011140;28;20026;-66
2021/05/22 09:36:26;;;;;;;1.40;0.40;;;;;;;;;;5010625;28;20034;-67
2021/05/22 09:38:55;;;;;;;1.30;0.40;;;;;;;;;;5010380;28;20519;-66
2021/05/22 09:41:21;;;;;;;1.30;0.32;;;;;;;;;;5010622;28;20065;-66
2021/05/22 09:44:06;;;;;;;3.42;0.30;;;;;;;;;;5012555;28;20026;-66
2021/05/22 09:46:32;;;;;;;2.28;0.38;;;;;;;;;;5010459;28;20116;-66
2021/05/22 09:49:02;;;;;;;0.50;0.40;;;;;;;;;;5010606;28;20113;-66
2021/05/22 09:51:28;;;;;;;1.60;0.50;;;;;;;;;;5010436;28;20033;-66
2021/05/22 09:53:54;;;;;;;0.70;0.50;;;;;;;;;;5010159;28;20028;-66
2021/05/22 09:56:27;;;;;;;0.90;0.50;;;;;;;;;;5009621;28;20426;-65
2021/05/22 09:59:01;;;;;;;1.15;0.30;;;;;;;;;;5010873;28;20140;-65
2021/05/22 10:01:31;;;;;;;2.90;0.60;;;;;;;;;;5013737;28;20068;-64
2021/05/22 10:04:16;;;;;;;0.98;0.50;;;;;;;;;;5010338;28;20034;-65
2021/05/22 10:06:42;;;;;;;2.95;0.60;;;;;;;;;;5009719;28;20129;-64
2021/05/22 10:09:13;;;;;;;10.25;0.45;;;;;;;;;;5009849;28;20030;-65
2021/05/22 10:11:57;;;;;;;3.28;0.75;;;;;;;;;;5009700;28;20448;-65
2021/05/22 10:14:23;;;;;;;1.05;0.40;;;;;;;;;;5009669;28;20034;-65
2021/05/22 10:16:49;;;;;;;4.38;0.77;;;;;;;;;;5010588;28;20030;-65
2021/05/22 10:19:15;;;;;;;1.05;0.70;;;;;;;;;;5011555;28;20030;-65
2021/05/22 10:21:41;;;;;;;1.42;0.40;;;;;;;;;;5008958;28;20026;-65
2021/05/22 10:24:08;;;;;;;1.02;0.40;;;;;;;;;;5009505;28;20449;-65
2021/05/22 10:26:34;;;;;;;1.85;0.30;;;;;;;;;;5009689;28;20032;-65
2021/05/22 10:29:00;;;;;;;0.30;0.25;;;;;;;;;;5009681;28;20022;-65
2021/05/22 10:31:25;;;;;;;0.30;0.30;;;;;;;;;;5013001;28;20025;-65
2021/05/22 10:33:52;;;;;;;1.35;0.30;;;;;;;;;;5009128;28;20049;-65
2021/05/22 10:36:37;;;;;;;0.50;0.30;;;;;;;;;;5009316;28;20388;-65
2021/05/22 10:39:03;;;;;;;6.47;0.70;;;;;;;;;;5008659;28;20381;-65
2021/05/22 10:41:39;;;;;;;2.28;0.50;;;;;;;;;;5009561;28;20045;-65
2021/05/22 10:44:06;;;;;;;3.50;0.52;;;;;;;;;;4994815;28;20162;-65
2021/05/22 10:46:32;;;;;;;3.60;0.60;;;;;;;;;;5012397;28;20152;-66
2021/05/22 10:49:02;;;;;;;1.13;0.40;;;;;;;;;;5009040;28;20018;-67
2021/05/22 10:51:33;;;;;;;1.10;0.52;;;;;;;;;;5009138;28;20157;-66
2021/05/22 10:54:00;;;;;;;3.47;0.65;;;;;;;;;;5009893;28;20045;-66
2021/05/22 10:56:28;;;;;;;0.47;0.35;;;;;;;;;;5009109;28;20029;-65
2021/05/22 10:59:01;;;;;;;1.75;0.30;;;;;;;;;;5009781;28;20037;-64
2021/05/22 11:01:35;;;;;;;1.80;0.50;;;;;;;;;;5012269;28;20053;-65
2021/05/22 11:04:08;;;;;;;0.35;0.30;;;;;;;;;;5009501;28;20072;-65
2021/05/22 11:06:58;;;;;;;0.30;0.20;;;;;;;;;;5008653;28;20038;-65
2021/05/22 11:09:34;;;;;;;0.40;0.30;;;;;;;;;;5009921;28;20116;-67
2021/05/22 11:12:14;;;;;;;0.40;0.30;;;;;;;;;;5008488;28;20026;-67
2021/05/22 11:14:51;;;;;;;0.40;0.30;;;;;;;;;;5008489;28;20025;-65
2021/05/22 11:17:29;;;;;;;7.18;1.25;;;;;;;;;;5008919;28;20731;-66
2021/05/22 11:20:09;;;;;;;2.08;0.40;;;;;;;;;;5009259;28;20026;-66
2021/05/22 11:22:41;;;;;;;1.80;0.40;;;;;;;;;;5008042;28;20034;-66
2021/05/22 11:25:09;;;;;;;0.75;0.30;;;;;;;;;;5010981;28;20068;-66
2021/05/22 11:31:09;;;;;;;0.43;0.25;;;;;;;;;;5007599;28;20350;-66
2021/05/22 11:33:37;;;;;;;1.13;0.20;;;;;;;;;;5038921;28;20037;-66
2021/05/22 11:36:24;;;;;;;2.88;0.52;;;;;;;;;;5010095;28;20477;-66
2021/05/22 11:38:53;;;;;;;3.42;0.50;;;;;;;;;;5008480;28;20390;-66
2021/05/22 11:41:28;;;;;;;0.88;0.38;;;;;;;;;;5040144;28;20026;-65
2021/05/22 11:44:04;;;;;;;1.23;0.30;;;;;;;;;;5009000;28;20058;-65
2021/05/22 11:46:30;;;;;;;0.47;0.32;;;;;;;;;;5008043;28;20030;-65
2021/05/22 11:48:56;;;;;;;1.10;0.50;;;;;;;;;;5009880;28;20377;-65
2021/05/22 11:51:32;;;;;;;1.98;0.40;;;;;;;;;;5007714;28;20139;-65
2021/05/22 11:54:04;;;;;;;2.05;0.50;;;;;;;;;;5008079;28;20026;-65
2021/05/22 11:56:33;;;;;;;0.52;0.40;;;;;;;;;;5008558;28;20070;-66
2021/05/22 11:59:02;;;;;;;3.03;0.55;;;;;;;;;;4992883;28;20026;-66
2021/05/22 12:01:38;;;;;;;0.75;0.40;;;;;;;;;;5005020;28;20030;-66
2021/05/22 12:04:10;;;;;;;1.73;0.60;;;;;;;;;;5010652;28;20387;-66
2021/05/22 12:06:41;;;;;;;0.50;0.50;;;;;;;;;;5039065;28;20078;-66
2021/05/22 12:09:33;;;;;;;2.53;0.73;;;;;;;;;;5008127;28;20037;-66
2021/05/22 12:12:03;;;;;;;1.77;0.80;;;;;;;;;;5040310;28;20026;-66
2021/05/22 12:14:44;;;;;;;0.70;0.55;;;;;;;;;;5007974;28;20018;-66
2021/05/22 12:17:15;;;;;;;1.67;0.70;;;;;;;;;;4997271;28;20045;-66
2021/05/22 12:19:48;;;;;;;3.05;0.80;;;;;;;;;;5008953;28;20084;-66
2021/05/22 12:22:18;;;;;;;2.03;0.88;;;;;;;;;;5015535;28;20125;-66
2021/05/22 12:24:49;;;;;;;1.63;0.70;;;;;;;;;;5013582;28;20528;-66
2021/05/22 12:27:22;;;;;;;2.70;0.85;;;;;;;;;;5012289;28;20042;-66
2021/05/22 12:30:00;;;;;;;2.10;0.80;;;;;;;;;;5043591;28;20407;-66
2021/05/22 12:32:38;;;;;;;2.17;0.80;;;;;;;;;;5002160;28;20057;-66
2021/05/22 12:35:04;;;;;;;;;;;;;;;;;;4997564;28;20061;-66
2021/05/22 12:37:36;;;;;;;2.40;1.00;;;;;;;;;;5014748;28;19951;-66
2021/05/22 12:40:08;;;;;;;0.93;0.70;;;;;;;;;;5013963;28;20034;-66
2021/05/22 12:42:35;;;;;;;5.18;0.80;;;;;;;;;;5011052;28;20117;-66
2021/05/22 12:45:11;;;;;;;2.03;0.90;;;;;;;;;;5011262;28;20539;-66
2021/05/22 12:47:45;;;;;;;2.92;1.00;;;;;;;;;;5013238;28;20025;-66
2021/05/22 12:50:13;;;;;;;2.25;0.80;;;;;;;;;;5011578;28;20069;-66
2021/05/22 12:53:00;;;;;;;0.98;0.70;;;;;;;;;;5013234;28;20030;-66
2021/05/22 12:55:28;;;;;;;;;;;;;;;;;;5016305;28;20022;-65
2021/05/22 12:57:54;;;;;;;4.50;1.10;;;;;;;;;;5012904;28;20000;-65
2021/05/22 13:00:36;;;;;;;2.65;0.98;;;;;;;;;;5011307;28;20520;-65
2021/05/22 13:03:02;;;;;;;2.45;0.80;;;;;;;;;;5011121;28;20018;-65
2021/05/22 13:05:30;;;;;;;3.38;1.10;;;;;;;;;;5011386;28;20029;-65
2021/05/22 13:07:58;;;;;;;3.47;0.90;;;;;;;;;;5033518;23;20137;-92
2021/05/22 13:10:25;;;;;;;1.67;0.80;;;;;;;;;;5039461;28;20267;-95
2021/05/22 13:12:56;;;;;;;3.53;0.85;;;;;;;;;;5040461;28;20057;-94
2021/05/22 13:15:22;;;;;;;3.28;0.90;;;;;;;;;;5038248;28;20124;-93
2021/05/22 13:17:49;;;;;;;3.72;1.10;;;;;;;;;;5041794;28;20037;-92
2021/05/22 13:20:16;;;;;;;5.93;1.60;;;;;;;;;;5043481;28;20016;-93
2021/05/22 13:22:42;;;;;;;2.55;1.15;;;;;;;;;;5043434;28;20068;-93
2021/05/22 13:25:12;;;;;;;7.45;1.63;;;;;;;;;;5038575;28;20037;-93
2021/05/22 13:27:38;;;;;;;4.13;1.38;;;;;;;;;;5044514;28;20375;-94
2021/05/22 13:30:07;;;;;;;3.60;1.10;;;;;;;;;;5050049;28;20031;-95
2021/05/22 13:32:35;;;;;;;4.13;1.40;;;;;;;;;;5034396;28;20305;-94
2021/05/22 13:35:01;;;;;;;4.95;1.35;;;;;;;;;;5026951;28;20081;-92
2021/05/22 13:37:27;;;;;;;5.03;1.95;;;;;;;;;;5047700;28;20820;-94
2021/05/22 13:39:53;;;;;;;2.70;1.30;;;;;;;;;;5036320;28;20036;-94
2021/05/22 13:42:19;;;;;;;3.85;1.60;;;;;;;;;;5033457;28;20033;-93
2021/05/22 13:44:45;;;;;;;1.67;0.93;;;;;;;;;;5035340;28;20037;-93
2021/05/22 13:47:11;;;;;;;7.20;1.48;;;;;;;;;;5043605;28;20025;-94
2021/05/22 13:49:37;;;;;;;5.20;1.30;;;;;;;;;;5043206;28;20025;-93
2021/05/22 13:52:04;;;;;;;4.75;1.13;;;;;;;;;;5050381;28;20032;-89
2021/05/22 13:54:30;;;;;;;4.78;2.03;;;;;;;;;;5047939;28;20036;-91
2021/05/22 13:56:56;;;;;;;4.60;1.85;;;;;;;;;;5032526;28;20071;-90
2021/05/22 13:59:22;;;;;;;5.47;1.38;;;;;;;;;;5028332;28;20053;-95
2021/05/22 14:01:48;;;;;;;4.55;1.50;;;;;;;;;;5032948;28;20077;-91
2021/05/22 14:04:14;;;;;;;5.60;1.80;;;;;;;;;;5038976;28;20040;-93
2021/05/22 14:06:41;;;;;;;4.72;1.58;;;;;;;;;;5039405;28;20036;-94
2021/05/22 14:09:07;;;;;;;7.93;1.60;;;;;;;;;;5044116;28;20038;-96
2021/05/22 14:11:33;;;;;;;4.95;1.60;;;;;;;;;;5040117;28;20334;-94
2021/05/22 14:13:59;;;;;;;4.10;1.58;;;;;;;;;;5034665;28;20061;-94
2021/05/22 14:16:25;;;;;;;4.53;2.00;;;;;;;;;;5035103;28;20349;-95
2021/05/22 14:18:51;;;;;;;8.52;2.25;;;;;;;;;;5045807;28;20044;-93
2021/05/22 14:21:17;;;;;;;6.00;2.00;;;;;;;;;;5040351;28;20026;-95
2021/05/22 14:23:44;;;;;;;4.53;1.80;;;;;;;;;;5042814;28;20059;-95
2021/05/22 14:26:10;;;;;;;2.97;1.90;;;;;;;;;;5043489;28;20065;-95
2021/05/22 14:28:36;;;;;;;9.00;2.63;;;;;;;;;;5039680;28;20041;-94
2021/05/22 14:31:02;;;;;;;3.65;1.80;;;;;;;;;;5040126;28;20033;-93
2021/05/22 14:33:28;;;;;;;7.53;2.70;;;;;;;;;;5028644;28;20466;-93
2021/05/22 14:35:54;;;;;;;9.07;3.30;;;;;;;;;;5029924;28;20033;-94
2021/05/22 14:38:20;;;;;;;6.78;3.45;;;;;;;;;;5037072;28;20029;-95
2021/05/22 14:40:46;;;;;;;7.15;3.35;;;;;;;;;;5042952;28;20022;-93
2021/05/22 14:43:12;;;;;;;11.90;3.45;;;;;;;;;;5048437;28;20025;-91
2021/05/22 14:45:39;;;;;;;8.02;3.40;;;;;;;;;;5034200;28;20072;-93
2021/05/22 14:48:07;;;;;;;9.75;3.40;;;;;;;;;;5033243;28;20018;-91
2021/05/22 14:50:34;;;;;;;7.88;3.10;;;;;;;;;;5016385;28;20053;-91
2021/05/22 14:53:00;;;;;;;6.55;3.00;;;;;;;;;;5054371;28;20009;-92